sensor_id;sensor_type;location;lat;lon;timestamp;temperature;humidity
13682;DHT22;6913;49.892;7.936;2022-12-15T00:02:36;-3.30;99.90
13682;DHT22;6913;49.892;7.936;2022-12-15T00:05:21;-3.30;99.90
13682;DHT22;6913;49.892;7.936;2022-12-15T00:08:06;-3.50;99.90
13682;DHT22;6913;49.892;7.936;2022-12-15T00:10:51;-3.50;99.90
13682;DHT22;6913;49.892;7.936;2022-12-15T00:13:35;-3.40;99.90
13682;DHT22;6913;49.892;7.936;2022-12-15T00:16:20;-3.50;99.90
13682;DHT22;6913;49.892;7.936;2022-12-15T00:19:04;-3.40;99.90
13682;DHT22;6913;49.892;7.936;2022-12-15T00:21:50;-3.30;99.90
13682;DHT22;6913;49.892;7.936;2022-12-15T00:24:34;-3.30;99.90
13682;DHT22;6913;49.892;7.936;2022-12-15T00:27:19;-3.40;99.90
13682;DHT22;6913;49.892;7.936;2022-12-15T00:30:04;-3.50;99.90
13682;DHT22;6913;49.892;7.936;2022-12-15T00:32:49;-3.40;99.90
13682;DHT22;6913;49.892;7.936;2022-12-15T00:35:33;-3.30;99.90
13682;DHT22;6913;49.892;7.936;2022-12-15T00:38:19;-3.60;99.90
13682;DHT22;6913;49.892;7.936;2022-12-15T00:41:04;-3.50;99.90
13682;DHT22;6913;49.892;7.936;2022-12-15T00:43:32;-3.40;99.90
13682;DHT22;6913;49.892;7.936;2022-12-15T00:45:59;-3.40;99.90
13682;DHT22;6913;49.892;7.936;2022-12-15T00:48:46;-3.50;99.90
13682;DHT22;6913;49.892;7.936;2022-12-15T00:51:14;-3.40;99.90
13682;DHT22;6913;49.892;7.936;2022-12-15T00:53:41;-3.50;99.90
13682;DHT22;6913;49.892;7.936;2022-12-15T00:56:26;-3.40;99.90
13682;DHT22;6913;49.892;7.936;2022-12-15T00:59:13;-3.50;99.90
13682;DHT22;6913;49.892;7.936;2022-12-15T01:01:58;-3.50;99.90
13682;DHT22;6913;49.892;7.936;2022-12-15T01:04:42;-3.50;99.90
13682;DHT22;6913;49.892;7.936;2022-12-15T01:07:27;-3.50;99.90
13682;DHT22;6913;49.892;7.936;2022-12-15T01:10:12;-3.50;99.90
13682;DHT22;6913;49.892;7.936;2022-12-15T01:12:57;-2.70;99.90
13682;DHT22;6913;49.892;7.936;2022-12-15T01:15:41;-3.60;99.90
13682;DHT22;6913;49.892;7.936;2022-12-15T01:18:25;-3.60;99.90
13682;DHT22;6913;49.892;7.936;2022-12-15T01:21:11;-3.70;99.90
13682;DHT22;6913;49.892;7.936;2022-12-15T01:23:38;-3.70;99.90
13682;DHT22;6913;49.892;7.936;2022-12-15T01:26:07;-3.80;99.90
13682;DHT22;6913;49.892;7.936;2022-12-15T01:28:34;-3.80;99.90
13682;DHT22;6913;49.892;7.936;2022-12-15T01:31:01;-3.90;99.90
13682;DHT22;6913;49.892;7.936;2022-12-15T01:33:34;-3.90;99.90
13682;DHT22;6913;49.892;7.936;2022-12-15T01:36:01;-3.90;99.90
13682;DHT22;6913;49.892;7.936;2022-12-15T01:38:28;-3.90;99.90
13682;DHT22;6913;49.892;7.936;2022-12-15T01:40:58;-4.00;99.90
13682;DHT22;6913;49.892;7.936;2022-12-15T01:43:28;-4.00;99.90
13682;DHT22;6913;49.892;7.936;2022-12-15T01:46:04;-4.10;99.90
13682;DHT22;6913;49.892;7.936;2022-12-15T01:48:41;-4.10;99.90
13682;DHT22;6913;49.892;7.936;2022-12-15T01:51:15;-4.20;99.90
13682;DHT22;6913;49.892;7.936;2022-12-15T01:53:47;-4.30;99.90
13682;DHT22;6913;49.892;7.936;2022-12-15T01:56:17;-3.50;99.90
13682;DHT22;6913;49.892;7.936;2022-12-15T01:58:48;-4.30;99.90
13682;DHT22;6913;49.892;7.936;2022-12-15T02:01:15;-4.30;99.90
13682;DHT22;6913;49.892;7.936;2022-12-15T02:03:43;-4.40;99.90
13682;DHT22;6913;49.892;7.936;2022-12-15T02:06:10;-4.40;99.90
13682;DHT22;6913;49.892;7.936;2022-12-15T02:08:39;-4.80;99.90
13682;DHT22;6913;49.892;7.936;2022-12-15T02:11:32;-4.70;99.90
13682;DHT22;6913;49.892;7.936;2022-12-15T02:14:04;-4.70;99.90
13682;DHT22;6913;49.892;7.936;2022-12-15T02:16:41;-4.90;99.90
13682;DHT22;6913;49.892;7.936;2022-12-15T02:21:50;-4.90;99.90
13682;DHT22;6913;49.892;7.936;2022-12-15T02:24:39;-5.20;99.90
13682;DHT22;6913;49.892;7.936;2022-12-15T02:27:32;-5.10;99.90
13682;DHT22;6913;49.892;7.936;2022-12-15T02:30:20;-5.00;99.90
13682;DHT22;6913;49.892;7.936;2022-12-15T02:33:00;-5.10;99.90
13682;DHT22;6913;49.892;7.936;2022-12-15T02:35:34;-5.10;99.90
13682;DHT22;6913;49.892;7.936;2022-12-15T02:38:02;-5.20;99.90
13682;DHT22;6913;49.892;7.936;2022-12-15T02:40:29;-5.20;99.90
13682;DHT22;6913;49.892;7.936;2022-12-15T02:42:58;-5.20;99.90
13682;DHT22;6913;49.892;7.936;2022-12-15T02:45:31;-5.30;99.90
13682;DHT22;6913;49.892;7.936;2022-12-15T02:48:09;-5.30;99.90
13682;DHT22;6913;49.892;7.936;2022-12-15T02:50:59;-5.40;99.90
13682;DHT22;6913;49.892;7.936;2022-12-15T02:56:31;-5.50;99.90
13682;DHT22;6913;49.892;7.936;2022-12-15T02:59:07;-5.70;99.90
13682;DHT22;6913;49.892;7.936;2022-12-15T03:01:41;-5.70;99.90
13682;DHT22;6913;49.892;7.936;2022-12-15T03:04:10;-5.70;99.90
13682;DHT22;6913;49.892;7.936;2022-12-15T03:06:38;-5.70;99.90
13682;DHT22;6913;49.892;7.936;2022-12-15T03:09:05;-5.80;99.90
13682;DHT22;6913;49.892;7.936;2022-12-15T03:11:32;-5.40;99.90
13682;DHT22;6913;49.892;7.936;2022-12-15T03:13:59;-5.90;99.90
13682;DHT22;6913;49.892;7.936;2022-12-15T03:16:26;-6.00;99.90
13682;DHT22;6913;49.892;7.936;2022-12-15T03:18:54;-6.10;99.90
13682;DHT22;6913;49.892;7.936;2022-12-15T03:21:21;-6.20;99.90
13682;DHT22;6913;49.892;7.936;2022-12-15T03:23:48;-6.30;99.90
13682;DHT22;6913;49.892;7.936;2022-12-15T03:26:15;-6.50;99.90
13682;DHT22;6913;49.892;7.936;2022-12-15T03:28:42;-6.50;99.90
13682;DHT22;6913;49.892;7.936;2022-12-15T03:31:09;-6.50;99.90
13682;DHT22;6913;49.892;7.936;2022-12-15T03:33:36;-6.50;99.90
13682;DHT22;6913;49.892;7.936;2022-12-15T03:36:05;-6.50;99.90
13682;DHT22;6913;49.892;7.936;2022-12-15T03:38:32;-6.60;99.90
13682;DHT22;6913;49.892;7.936;2022-12-15T03:40:59;-5.40;99.90
13682;DHT22;6913;49.892;7.936;2022-12-15T03:43:26;-7.10;99.90
13682;DHT22;6913;49.892;7.936;2022-12-15T03:45:53;-6.90;99.90
13682;DHT22;6913;49.892;7.936;2022-12-15T03:48:20;-7.20;99.90
13682;DHT22;6913;49.892;7.936;2022-12-15T03:50:47;-7.10;99.90
13682;DHT22;6913;49.892;7.936;2022-12-15T03:53:16;-7.40;99.90
13682;DHT22;6913;49.892;7.936;2022-12-15T03:55:43;-7.30;99.90
13682;DHT22;6913;49.892;7.936;2022-12-15T03:58:09;-7.40;99.90
13682;DHT22;6913;49.892;7.936;2022-12-15T04:00:36;-7.40;99.90
13682;DHT22;6913;49.892;7.936;2022-12-15T04:03:04;-7.20;99.90
13682;DHT22;6913;49.892;7.936;2022-12-15T04:05:32;-7.10;99.90
13682;DHT22;6913;49.892;7.936;2022-12-15T04:08:00;-7.00;99.90
13682;DHT22;6913;49.892;7.936;2022-12-15T04:10:30;-6.90;99.90
13682;DHT22;6913;49.892;7.936;2022-12-15T04:12:57;-7.00;99.90
13682;DHT22;6913;49.892;7.936;2022-12-15T04:15:25;-7.00;99.90
13682;DHT22;6913;49.892;7.936;2022-12-15T04:17:52;-7.00;99.90
13682;DHT22;6913;49.892;7.936;2022-12-15T04:20:19;-6.90;99.90
13682;DHT22;6913;49.892;7.936;2022-12-15T04:22:47;-6.90;99.90
13682;DHT22;6913;49.892;7.936;2022-12-15T04:25:17;-6.90;99.90
13682;DHT22;6913;49.892;7.936;2022-12-15T04:28:03;-6.90;99.90
13682;DHT22;6913;49.892;7.936;2022-12-15T04:30:50;-6.90;99.90
13682;DHT22;6913;49.892;7.936;2022-12-15T04:33:35;-6.80;99.90
13682;DHT22;6913;49.892;7.936;2022-12-15T04:36:21;-6.90;99.90
13682;DHT22;6913;49.892;7.936;2022-12-15T04:39:05;-6.90;99.90
13682;DHT22;6913;49.892;7.936;2022-12-15T04:41:50;-6.90;99.90
13682;DHT22;6913;49.892;7.936;2022-12-15T04:44:37;-6.90;99.90
13682;DHT22;6913;49.892;7.936;2022-12-15T04:47:21;-6.90;99.90
13682;DHT22;6913;49.892;7.936;2022-12-15T04:50:06;-6.90;99.90
13682;DHT22;6913;49.892;7.936;2022-12-15T04:52:51;-6.90;99.90
13682;DHT22;6913;49.892;7.936;2022-12-15T04:55:36;-7.00;99.90
13682;DHT22;6913;49.892;7.936;2022-12-15T04:58:20;-7.00;99.90
13682;DHT22;6913;49.892;7.936;2022-12-15T05:01:06;-7.00;99.90
13682;DHT22;6913;49.892;7.936;2022-12-15T05:03:50;-7.00;99.90
13682;DHT22;6913;49.892;7.936;2022-12-15T05:06:35;-7.00;99.90
13682;DHT22;6913;49.892;7.936;2022-12-15T05:09:19;-7.00;99.90
13682;DHT22;6913;49.892;7.936;2022-12-15T05:12:04;-7.10;99.90
13682;DHT22;6913;49.892;7.936;2022-12-15T05:14:48;-7.10;99.90
13682;DHT22;6913;49.892;7.936;2022-12-15T05:17:34;-7.20;99.90
13682;DHT22;6913;49.892;7.936;2022-12-15T05:20:18;-7.20;99.90
13682;DHT22;6913;49.892;7.936;2022-12-15T05:23:03;-7.20;99.90
13682;DHT22;6913;49.892;7.936;2022-12-15T05:25:47;-7.20;99.90
13682;DHT22;6913;49.892;7.936;2022-12-15T05:28:31;-7.20;99.90
13682;DHT22;6913;49.892;7.936;2022-12-15T05:31:15;-7.30;99.90
13682;DHT22;6913;49.892;7.936;2022-12-15T05:34:01;-7.30;99.90
13682;DHT22;6913;49.892;7.936;2022-12-15T05:36:28;-7.30;99.90
13682;DHT22;6913;49.892;7.936;2022-12-15T05:38:55;-7.30;99.90
13682;DHT22;6913;49.892;7.936;2022-12-15T05:41:22;-7.40;99.90
13682;DHT22;6913;49.892;7.936;2022-12-15T05:43:49;-5.90;99.90
13682;DHT22;6913;49.892;7.936;2022-12-15T05:46:16;-7.40;99.90
13682;DHT22;6913;49.892;7.936;2022-12-15T05:48:44;-7.40;99.90
13682;DHT22;6913;49.892;7.936;2022-12-15T05:51:12;-7.50;99.90
13682;DHT22;6913;49.892;7.936;2022-12-15T05:53:41;-7.60;99.90
13682;DHT22;6913;49.892;7.936;2022-12-15T05:56:10;-7.70;99.90
13682;DHT22;6913;49.892;7.936;2022-12-15T05:58:38;-7.70;99.90
13682;DHT22;6913;49.892;7.936;2022-12-15T06:01:08;-7.80;99.90
13682;DHT22;6913;49.892;7.936;2022-12-15T06:03:36;-7.80;99.90
13682;DHT22;6913;49.892;7.936;2022-12-15T06:06:04;-7.90;99.90
13682;DHT22;6913;49.892;7.936;2022-12-15T06:08:34;-7.80;99.90
13682;DHT22;6913;49.892;7.936;2022-12-15T06:11:01;-7.60;99.90
13682;DHT22;6913;49.892;7.936;2022-12-15T06:13:29;-7.50;99.90
13682;DHT22;6913;49.892;7.936;2022-12-15T06:15:57;-7.40;99.90
13682;DHT22;6913;49.892;7.936;2022-12-15T06:18:27;-7.30;99.90
13682;DHT22;6913;49.892;7.936;2022-12-15T06:20:58;-7.20;99.90
13682;DHT22;6913;49.892;7.936;2022-12-15T06:23:27;-7.20;99.90
13682;DHT22;6913;49.892;7.936;2022-12-15T06:25:55;-7.20;99.90
13682;DHT22;6913;49.892;7.936;2022-12-15T06:28:22;-7.20;99.90
13682;DHT22;6913;49.892;7.936;2022-12-15T06:30:50;-7.10;99.90
13682;DHT22;6913;49.892;7.936;2022-12-15T06:33:18;-7.00;99.90
13682;DHT22;6913;49.892;7.936;2022-12-15T06:35:45;-7.00;99.90
13682;DHT22;6913;49.892;7.936;2022-12-15T06:38:12;-6.80;99.90
13682;DHT22;6913;49.892;7.936;2022-12-15T06:40:40;-6.90;99.90
13682;DHT22;6913;49.892;7.936;2022-12-15T06:43:08;-6.80;99.90
13682;DHT22;6913;49.892;7.936;2022-12-15T06:45:35;-6.70;99.90
13682;DHT22;6913;49.892;7.936;2022-12-15T06:48:02;-6.70;99.90
13682;DHT22;6913;49.892;7.936;2022-12-15T06:50:29;-6.60;99.90
13682;DHT22;6913;49.892;7.936;2022-12-15T06:52:57;-6.70;99.90
13682;DHT22;6913;49.892;7.936;2022-12-15T06:55:24;-6.70;99.90
13682;DHT22;6913;49.892;7.936;2022-12-15T06:57:52;-6.70;99.90
13682;DHT22;6913;49.892;7.936;2022-12-15T07:00:21;-6.60;99.90
13682;DHT22;6913;49.892;7.936;2022-12-15T07:02:48;-6.40;99.90
13682;DHT22;6913;49.892;7.936;2022-12-15T07:05:15;-6.30;99.90
13682;DHT22;6913;49.892;7.936;2022-12-15T07:07:42;-5.30;99.90
13682;DHT22;6913;49.892;7.936;2022-12-15T07:10:09;-6.20;99.90
13682;DHT22;6913;49.892;7.936;2022-12-15T07:12:36;-6.20;99.90
13682;DHT22;6913;49.892;7.936;2022-12-15T07:15:04;-6.20;99.90
13682;DHT22;6913;49.892;7.936;2022-12-15T07:17:34;-6.10;99.90
13682;DHT22;6913;49.892;7.936;2022-12-15T07:20:01;-6.00;99.90
13682;DHT22;6913;49.892;7.936;2022-12-15T07:22:28;-6.00;99.90
13682;DHT22;6913;49.892;7.936;2022-12-15T07:24:55;-5.90;99.90
13682;DHT22;6913;49.892;7.936;2022-12-15T07:27:22;-5.80;99.90
13682;DHT22;6913;49.892;7.936;2022-12-15T07:29:49;-5.70;99.90
13682;DHT22;6913;49.892;7.936;2022-12-15T07:32:17;-5.60;99.90
13682;DHT22;6913;49.892;7.936;2022-12-15T07:34:45;-5.60;99.90
13682;DHT22;6913;49.892;7.936;2022-12-15T07:37:12;-5.50;99.90
13682;DHT22;6913;49.892;7.936;2022-12-15T07:39:40;-5.50;99.90
13682;DHT22;6913;49.892;7.936;2022-12-15T07:42:07;-4.80;99.90
13682;DHT22;6913;49.892;7.936;2022-12-15T07:44:34;-5.40;99.90
13682;DHT22;6913;49.892;7.936;2022-12-15T07:47:01;-5.50;99.90
13682;DHT22;6913;49.892;7.936;2022-12-15T07:49:28;-5.40;99.90
13682;DHT22;6913;49.892;7.936;2022-12-15T07:51:56;-5.50;99.90
13682;DHT22;6913;49.892;7.936;2022-12-15T07:54:23;-5.30;99.90
13682;DHT22;6913;49.892;7.936;2022-12-15T07:56:50;-5.10;99.90
13682;DHT22;6913;49.892;7.936;2022-12-15T07:59:17;-5.00;99.90
13682;DHT22;6913;49.892;7.936;2022-12-15T08:01:44;-5.40;99.90
13682;DHT22;6913;49.892;7.936;2022-12-15T08:04:11;-4.90;99.90
13682;DHT22;6913;49.892;7.936;2022-12-15T08:06:39;-4.90;99.90
13682;DHT22;6913;49.892;7.936;2022-12-15T08:09:08;-4.80;99.90
13682;DHT22;6913;49.892;7.936;2022-12-15T08:11:35;-5.00;99.90
13682;DHT22;6913;49.892;7.936;2022-12-15T08:14:03;-4.80;99.90
13682;DHT22;6913;49.892;7.936;2022-12-15T08:16:30;-4.70;99.90
13682;DHT22;6913;49.892;7.936;2022-12-15T08:18:59;-4.70;99.90
13682;DHT22;6913;49.892;7.936;2022-12-15T08:21:25;-4.70;99.90
13682;DHT22;6913;49.892;7.936;2022-12-15T08:23:52;-4.50;99.90
13682;DHT22;6913;49.892;7.936;2022-12-15T08:26:21;-4.60;99.90
13682;DHT22;6913;49.892;7.936;2022-12-15T08:28:48;-4.70;99.90
13682;DHT22;6913;49.892;7.936;2022-12-15T08:31:17;-4.00;99.90
13682;DHT22;6913;49.892;7.936;2022-12-15T08:33:45;-3.20;99.90
13682;DHT22;6913;49.892;7.936;2022-12-15T08:36:14;-4.40;99.90
13682;DHT22;6913;49.892;7.936;2022-12-15T08:38:42;-4.00;99.90
13682;DHT22;6913;49.892;7.936;2022-12-15T08:41:11;-4.10;99.90
13682;DHT22;6913;49.892;7.936;2022-12-15T08:43:40;-4.20;99.90
13682;DHT22;6913;49.892;7.936;2022-12-15T08:46:07;-3.50;99.90
13682;DHT22;6913;49.892;7.936;2022-12-15T08:48:36;-3.90;99.90
13682;DHT22;6913;49.892;7.936;2022-12-15T08:51:03;-3.70;99.90
13682;DHT22;6913;49.892;7.936;2022-12-15T08:53:30;-3.00;99.90
13682;DHT22;6913;49.892;7.936;2022-12-15T08:56:01;-3.70;99.90
13682;DHT22;6913;49.892;7.936;2022-12-15T08:58:28;-3.50;99.90
13682;DHT22;6913;49.892;7.936;2022-12-15T09:01:00;-3.40;99.90
13682;DHT22;6913;49.892;7.936;2022-12-15T09:03:27;-3.30;99.90
13682;DHT22;6913;49.892;7.936;2022-12-15T09:05:53;-3.30;99.90
13682;DHT22;6913;49.892;7.936;2022-12-15T09:08:22;-3.40;99.90
13682;DHT22;6913;49.892;7.936;2022-12-15T09:10:49;-3.50;99.90
13682;DHT22;6913;49.892;7.936;2022-12-15T09:13:16;-3.20;99.90
13682;DHT22;6913;49.892;7.936;2022-12-15T09:15:43;-3.70;99.90
13682;DHT22;6913;49.892;7.936;2022-12-15T09:18:11;-2.50;99.90
13682;DHT22;6913;49.892;7.936;2022-12-15T09:20:38;-3.10;99.90
13682;DHT22;6913;49.892;7.936;2022-12-15T09:23:05;-2.70;99.90
13682;DHT22;6913;49.892;7.936;2022-12-15T09:25:32;-2.80;99.90
13682;DHT22;6913;49.892;7.936;2022-12-15T09:27:59;-2.80;99.90
13682;DHT22;6913;49.892;7.936;2022-12-15T09:30:26;-2.10;99.90
13682;DHT22;6913;49.892;7.936;2022-12-15T09:32:53;-3.10;99.90
13682;DHT22;6913;49.892;7.936;2022-12-15T09:35:21;-3.50;99.90
13682;DHT22;6913;49.892;7.936;2022-12-15T09:37:48;-2.80;99.90
13682;DHT22;6913;49.892;7.936;2022-12-15T09:40:15;-3.30;99.90
13682;DHT22;6913;49.892;7.936;2022-12-15T09:42:43;-3.10;99.90
13682;DHT22;6913;49.892;7.936;2022-12-15T09:45:18;-3.10;99.90
13682;DHT22;6913;49.892;7.936;2022-12-15T09:47:51;-3.10;99.90
13682;DHT22;6913;49.892;7.936;2022-12-15T09:50:25;-3.20;99.90
13682;DHT22;6913;49.892;7.936;2022-12-15T09:52:54;-2.90;99.90
13682;DHT22;6913;49.892;7.936;2022-12-15T09:55:26;-2.20;99.90
13682;DHT22;6913;49.892;7.936;2022-12-15T10:00:23;-2.60;99.90
13682;DHT22;6913;49.892;7.936;2022-12-15T10:05:56;-2.80;99.90
13682;DHT22;6913;49.892;7.936;2022-12-15T10:08:29;-2.90;99.90
13682;DHT22;6913;49.892;7.936;2022-12-15T10:10:58;-2.90;99.90
13682;DHT22;6913;49.892;7.936;2022-12-15T10:13:32;-3.00;99.90
13682;DHT22;6913;49.892;7.936;2022-12-15T10:16:14;-3.00;99.90
13682;DHT22;6913;49.892;7.936;2022-12-15T10:18:53;-2.90;99.90
13682;DHT22;6913;49.892;7.936;2022-12-15T10:21:25;-2.80;99.90
13682;DHT22;6913;49.892;7.936;2022-12-15T10:23:56;-2.80;99.90
13682;DHT22;6913;49.892;7.936;2022-12-15T10:26:28;-2.70;99.90
13682;DHT22;6913;49.892;7.936;2022-12-15T10:29:09;-2.50;99.90
13682;DHT22;6913;49.892;7.936;2022-12-15T10:31:44;-1.60;99.90
13682;DHT22;6913;49.892;7.936;2022-12-15T10:34:22;-2.50;99.90
13682;DHT22;6913;49.892;7.936;2022-12-15T10:36:51;-2.40;99.90
13682;DHT22;6913;49.892;7.936;2022-12-15T10:39:19;-2.30;99.90
13682;DHT22;6913;49.892;7.936;2022-12-15T10:42:17;-2.30;99.90
13682;DHT22;6913;49.892;7.936;2022-12-15T10:44:47;-2.30;99.90
13682;DHT22;6913;49.892;7.936;2022-12-15T10:47:18;-2.30;99.90
13682;DHT22;6913;49.892;7.936;2022-12-15T10:49:46;-1.80;99.90
13682;DHT22;6913;49.892;7.936;2022-12-15T10:52:21;-2.10;99.90
13682;DHT22;6913;49.892;7.936;2022-12-15T10:54:51;-2.20;99.90
13682;DHT22;6913;49.892;7.936;2022-12-15T10:57:21;-2.20;99.90
13682;DHT22;6913;49.892;7.936;2022-12-15T10:59:49;-2.20;99.90
13682;DHT22;6913;49.892;7.936;2022-12-15T11:02:28;-1.90;99.90
13682;DHT22;6913;49.892;7.936;2022-12-15T11:05:00;-1.80;99.90
13682;DHT22;6913;49.892;7.936;2022-12-15T11:07:34;-1.70;99.90
13682;DHT22;6913;49.892;7.936;2022-12-15T11:10:15;-1.90;99.90
13682;DHT22;6913;49.892;7.936;2022-12-15T11:12:43;-1.90;99.90
13682;DHT22;6913;49.892;7.936;2022-12-15T11:15:43;-2.20;99.90
13682;DHT22;6913;49.892;7.936;2022-12-15T11:18:23;-2.10;99.90
13682;DHT22;6913;49.892;7.936;2022-12-15T11:20:58;-2.30;99.90
13682;DHT22;6913;49.892;7.936;2022-12-15T11:23:36;-2.40;99.90
13682;DHT22;6913;49.892;7.936;2022-12-15T11:26:19;-2.30;99.90
13682;DHT22;6913;49.892;7.936;2022-12-15T11:28:51;-2.70;99.90
13682;DHT22;6913;49.892;7.936;2022-12-15T11:31:26;-2.00;99.90
13682;DHT22;6913;49.892;7.936;2022-12-15T11:33:54;-2.30;99.90
13682;DHT22;6913;49.892;7.936;2022-12-15T11:36:43;-1.70;99.90
13682;DHT22;6913;49.892;7.936;2022-12-15T11:39:23;-2.50;99.90
13682;DHT22;6913;49.892;7.936;2022-12-15T11:41:55;-1.80;99.90
13682;DHT22;6913;49.892;7.936;2022-12-15T11:44:28;-1.40;99.90
13682;DHT22;6913;49.892;7.936;2022-12-15T11:47:05;-1.20;99.90
13682;DHT22;6913;49.892;7.936;2022-12-15T11:50:06;-0.80;99.90
13682;DHT22;6913;49.892;7.936;2022-12-15T11:53:08;-2.00;99.90
13682;DHT22;6913;49.892;7.936;2022-12-15T11:55:45;-1.90;99.90
13682;DHT22;6913;49.892;7.936;2022-12-15T12:01:21;-1.90;99.90
13682;DHT22;6913;49.892;7.936;2022-12-15T12:03:58;-1.60;99.90
13682;DHT22;6913;49.892;7.936;2022-12-15T12:06:32;-1.50;99.90
13682;DHT22;6913;49.892;7.936;2022-12-15T12:09:18;-1.30;99.90
13682;DHT22;6913;49.892;7.936;2022-12-15T12:11:54;-1.20;99.90
13682;DHT22;6913;49.892;7.936;2022-12-15T12:14:30;-1.20;99.90
13682;DHT22;6913;49.892;7.936;2022-12-15T12:17:06;-1.50;99.90
13682;DHT22;6913;49.892;7.936;2022-12-15T12:19:38;-1.30;99.90
13682;DHT22;6913;49.892;7.936;2022-12-15T12:22:11;-2.20;99.90
13682;DHT22;6913;49.892;7.936;2022-12-15T12:24:43;-2.10;99.90
13682;DHT22;6913;49.892;7.936;2022-12-15T12:27:17;-1.20;99.90
13682;DHT22;6913;49.892;7.936;2022-12-15T12:29:51;-1.90;99.90
13682;DHT22;6913;49.892;7.936;2022-12-15T12:32:29;-2.00;99.90
13682;DHT22;6913;49.892;7.936;2022-12-15T12:35:02;-0.50;99.90
13682;DHT22;6913;49.892;7.936;2022-12-15T12:37:34;-2.00;99.90
13682;DHT22;6913;49.892;7.936;2022-12-15T12:40:06;-2.30;99.90
13682;DHT22;6913;49.892;7.936;2022-12-15T12:42:45;-2.40;99.90
13682;DHT22;6913;49.892;7.936;2022-12-15T12:45:13;-2.30;99.90
13682;DHT22;6913;49.892;7.936;2022-12-15T12:47:44;-2.40;99.90
13682;DHT22;6913;49.892;7.936;2022-12-15T12:50:17;-2.40;99.90
13682;DHT22;6913;49.892;7.936;2022-12-15T12:52:49;-2.60;99.90
13682;DHT22;6913;49.892;7.936;2022-12-15T12:55:25;-2.70;99.90
13682;DHT22;6913;49.892;7.936;2022-12-15T12:57:54;-3.10;99.90
13682;DHT22;6913;49.892;7.936;2022-12-15T13:00:24;-3.30;99.90
13682;DHT22;6913;49.892;7.936;2022-12-15T13:03:16;-3.30;99.90
13682;DHT22;6913;49.892;7.936;2022-12-15T13:05:46;-3.30;99.90
13682;DHT22;6913;49.892;7.936;2022-12-15T13:14:44;-3.00;99.90
13682;DHT22;6913;49.892;7.936;2022-12-15T13:17:17;-2.80;99.90
13682;DHT22;6913;49.892;7.936;2022-12-15T13:25:40;-2.40;99.90
13682;DHT22;6913;49.892;7.936;2022-12-15T13:28:26;-2.40;99.90
13682;DHT22;6913;49.892;7.936;2022-12-15T13:31:28;-2.40;99.90
13682;DHT22;6913;49.892;7.936;2022-12-15T13:34:00;-2.70;99.90
13682;DHT22;6913;49.892;7.936;2022-12-15T13:36:46;-2.80;99.90
13682;DHT22;6913;49.892;7.936;2022-12-15T13:42:40;-2.70;99.90
13682;DHT22;6913;49.892;7.936;2022-12-15T13:45:43;-2.80;99.90
13682;DHT22;6913;49.892;7.936;2022-12-15T13:48:30;-2.60;99.90
13682;DHT22;6913;49.892;7.936;2022-12-15T13:51:24;-2.40;99.90
13682;DHT22;6913;49.892;7.936;2022-12-15T13:53:57;-2.30;99.90
13682;DHT22;6913;49.892;7.936;2022-12-15T13:56:38;-2.30;99.90
13682;DHT22;6913;49.892;7.936;2022-12-15T13:59:17;-2.30;99.90
13682;DHT22;6913;49.892;7.936;2022-12-15T14:01:50;-2.30;99.90
13682;DHT22;6913;49.892;7.936;2022-12-15T14:04:19;-2.20;99.90
13682;DHT22;6913;49.892;7.936;2022-12-15T14:06:48;-2.10;99.90
13682;DHT22;6913;49.892;7.936;2022-12-15T14:09:20;-2.00;99.90
13682;DHT22;6913;49.892;7.936;2022-12-15T14:11:48;-1.90;99.90
13682;DHT22;6913;49.892;7.936;2022-12-15T14:14:18;-1.90;99.90
13682;DHT22;6913;49.892;7.936;2022-12-15T14:16:46;-1.90;99.90
13682;DHT22;6913;49.892;7.936;2022-12-15T14:19:18;-1.30;99.90
13682;DHT22;6913;49.892;7.936;2022-12-15T14:21:49;-1.90;99.90
13682;DHT22;6913;49.892;7.936;2022-12-15T14:24:25;-1.60;99.90
13682;DHT22;6913;49.892;7.936;2022-12-15T14:26:53;-2.00;99.90
13682;DHT22;6913;49.892;7.936;2022-12-15T14:29:21;-2.30;99.90
13682;DHT22;6913;49.892;7.936;2022-12-15T14:31:54;-2.30;99.90
13682;DHT22;6913;49.892;7.936;2022-12-15T14:34:26;-1.80;99.90
13682;DHT22;6913;49.892;7.936;2022-12-15T14:36:55;-1.90;99.90
13682;DHT22;6913;49.892;7.936;2022-12-15T14:39:27;-2.40;99.90
13682;DHT22;6913;49.892;7.936;2022-12-15T14:41:55;-2.30;99.90
13682;DHT22;6913;49.892;7.936;2022-12-15T14:44:29;-2.40;99.90
13682;DHT22;6913;49.892;7.936;2022-12-15T14:46:57;-0.20;99.90
13682;DHT22;6913;49.892;7.936;2022-12-15T14:49:28;-2.30;99.90
13682;DHT22;6913;49.892;7.936;2022-12-15T14:51:59;-2.40;99.90
13682;DHT22;6913;49.892;7.936;2022-12-15T14:54:31;-2.60;99.90
13682;DHT22;6913;49.892;7.936;2022-12-15T14:57:01;-2.80;99.90
13682;DHT22;6913;49.892;7.936;2022-12-15T14:59:32;-2.80;99.90
13682;DHT22;6913;49.892;7.936;2022-12-15T15:02:12;-2.80;99.90
13682;DHT22;6913;49.892;7.936;2022-12-15T15:04:40;-2.70;99.90
13682;DHT22;6913;49.892;7.936;2022-12-15T15:07:15;-2.50;99.90
13682;DHT22;6913;49.892;7.936;2022-12-15T15:09:44;-1.40;99.90
13682;DHT22;6913;49.892;7.936;2022-12-15T15:12:14;-2.90;99.90
13682;DHT22;6913;49.892;7.936;2022-12-15T15:14:44;-2.90;99.90
13682;DHT22;6913;49.892;7.936;2022-12-15T15:17:22;-3.00;99.90
13682;DHT22;6913;49.892;7.936;2022-12-15T15:19:54;-3.10;99.90
13682;DHT22;6913;49.892;7.936;2022-12-15T15:22:32;-2.10;99.90
13682;DHT22;6913;49.892;7.936;2022-12-15T15:25:01;-3.10;99.90
13682;DHT22;6913;49.892;7.936;2022-12-15T15:27:34;-3.00;99.90
13682;DHT22;6913;49.892;7.936;2022-12-15T15:30:16;-3.30;99.90
13682;DHT22;6913;49.892;7.936;2022-12-15T15:32:51;-3.20;99.90
13682;DHT22;6913;49.892;7.936;2022-12-15T15:35:20;-3.20;99.90
13682;DHT22;6913;49.892;7.936;2022-12-15T15:37:47;-3.00;99.90
13682;DHT22;6913;49.892;7.936;2022-12-15T15:40:16;-3.00;99.90
13682;DHT22;6913;49.892;7.936;2022-12-15T15:42:44;-2.20;99.90
13682;DHT22;6913;49.892;7.936;2022-12-15T15:45:13;-1.90;99.90
13682;DHT22;6913;49.892;7.936;2022-12-15T15:47:41;-3.00;99.90
13682;DHT22;6913;49.892;7.936;2022-12-15T15:50:12;-2.90;99.90
13682;DHT22;6913;49.892;7.936;2022-12-15T15:52:41;-2.90;99.90
13682;DHT22;6913;49.892;7.936;2022-12-15T15:55:14;-1.10;99.90
13682;DHT22;6913;49.892;7.936;2022-12-15T15:57:42;-3.10;99.90
13682;DHT22;6913;49.892;7.936;2022-12-15T16:00:15;-3.00;99.90
13682;DHT22;6913;49.892;7.936;2022-12-15T16:02:44;-3.10;99.90
13682;DHT22;6913;49.892;7.936;2022-12-15T16:05:11;-3.10;99.90
13682;DHT22;6913;49.892;7.936;2022-12-15T16:07:38;-3.10;99.90
13682;DHT22;6913;49.892;7.936;2022-12-15T16:10:11;-3.10;99.90
13682;DHT22;6913;49.892;7.936;2022-12-15T16:12:41;-3.10;99.90
13682;DHT22;6913;49.892;7.936;2022-12-15T16:15:13;-3.00;99.90
13682;DHT22;6913;49.892;7.936;2022-12-15T16:17:40;-3.10;99.90
13682;DHT22;6913;49.892;7.936;2022-12-15T16:20:09;-3.10;99.90
13682;DHT22;6913;49.892;7.936;2022-12-15T16:22:36;-3.20;99.90
13682;DHT22;6913;49.892;7.936;2022-12-15T16:25:03;-2.30;99.90
13682;DHT22;6913;49.892;7.936;2022-12-15T16:27:32;-3.20;99.90
13682;DHT22;6913;49.892;7.936;2022-12-15T16:29:59;-3.20;99.90
13682;DHT22;6913;49.892;7.936;2022-12-15T16:32:26;-3.10;99.90
13682;DHT22;6913;49.892;7.936;2022-12-15T16:34:53;-2.10;99.90
13682;DHT22;6913;49.892;7.936;2022-12-15T16:37:24;-2.20;99.90
13682;DHT22;6913;49.892;7.936;2022-12-15T16:39:51;-2.80;99.90
13682;DHT22;6913;49.892;7.936;2022-12-15T16:42:18;-3.20;99.90
13682;DHT22;6913;49.892;7.936;2022-12-15T16:44:47;-3.20;99.90
13682;DHT22;6913;49.892;7.936;2022-12-15T16:47:14;-3.10;99.90
13682;DHT22;6913;49.892;7.936;2022-12-15T16:49:41;-3.10;99.90
13682;DHT22;6913;49.892;7.936;2022-12-15T16:52:14;-2.80;99.90